Time;durP1;ratioP1;P1;durP2;ratioP2;P2;SDS_P1;SDS_P2;PMS_P1;PMS_P2;Temp;Humidity;BMP_temperature;BMP_pressure;BME280_temperature;BME280_humidity;BME280_pressure;Samples;Min_cycle;Max_cycle;Signal;HPM_P1;HPM_P2
2021/11/26 00:00:50;;;;;;;73.90;39.42;;;;;;;9.63;92.15;99610.59;4960201;28;20063;-58
2021/11/26 00:03:35;;;;;;;137.10;74.80;;;;;;;9.63;92.06;99610.59;4937107;29;20051;-57
2021/11/26 00:06:20;;;;;;;83.07;40.90;;;;;;;9.62;92.19;99607.06;4941402;29;20718;-58
2021/11/26 00:09:05;;;;;;;70.90;38.05;;;;;;;9.64;92.36;99609.47;4957617;28;20131;-58
2021/11/26 00:11:50;;;;;;;59.80;28.67;;;;;;;9.48;91.58;99605.78;4956323;28;20054;-59
2021/11/26 00:14:42;;;;;;;;;;;;;;;9.53;91.57;99600.94;4954422;28;20070;-58
2021/11/26 00:17:30;;;;;;;100.90;46.45;;;;;;;9.57;92.36;99593.72;4955082;28;19918;-58
2021/11/26 00:20:14;;;;;;;41.92;21.75;;;;;;;9.51;91.67;99586.13;4944014;29;20050;-60
2021/11/26 00:22:59;;;;;;;36.38;19.55;;;;;;;9.56;91.86;99588.63;4953853;29;20050;-58
2021/11/26 00:25:44;;;;;;;;;;;;;;;9.60;91.96;99581.41;4957767;29;20069;-59
2021/11/26 00:28:29;;;;;;;68.18;36.80;;;;;;;9.57;92.02;99577.44;4956205;29;20379;-58
2021/11/26 00:31:14;;;;;;;67.53;34.03;;;;;;;9.56;91.84;99567.69;4956036;28;20051;-58
2021/11/26 00:33:59;;;;;;;47.45;24.17;;;;;;;9.44;91.34;99557.63;4961844;28;20054;-58
2021/11/26 00:36:44;;;;;;;78.55;39.63;;;;;;;9.51;91.58;99557.06;4960164;28;20412;-57
2021/11/26 00:39:29;;;;;;;40.38;24.65;;;;;;;9.43;90.96;99552.53;4957684;28;20058;-58
2021/11/26 00:42:14;;;;;;;38.65;21.52;;;;;;;9.39;90.62;99555.13;4974066;28;20404;-58
2021/11/26 00:44:59;;;;;;;78.88;36.95;;;;;;;9.47;90.73;99537.16;4942503;29;20071;-59
2021/11/26 00:47:44;;;;;;;61.30;28.63;;;;;;;9.45;90.41;99534.78;4946337;29;20050;-59
2021/11/26 00:50:30;;;;;;;30.83;17.10;;;;;;;9.45;89.77;99534.78;4963857;28;20058;-60
2021/11/26 00:53:15;;;;;;;78.68;39.15;;;;;;;9.50;90.02;99522.16;4963564;28;20042;-60
2021/11/26 00:56:00;;;;;;;;;;;;;;;9.51;90.04;99518.28;4963091;28;20054;-60
2021/11/26 00:58:44;;;;;;;50.50;28.58;;;;;;;9.49;90.20;99512.41;4963646;28;19918;-60
2021/11/26 01:01:29;;;;;;;56.25;28.85;;;;;;;9.50;90.70;99500.44;4963409;28;20057;-60
2021/11/26 01:04:14;;;;;;;74.60;38.50;;;;;;;9.54;90.96;99506.75;4958541;28;20066;-59
2021/11/26 01:06:59;;;;;;;80.70;45.78;;;;;;;9.52;91.29;99498.16;4959935;28;20046;-59
2021/11/26 01:09:44;;;;;;;85.15;42.47;;;;;;;9.58;91.70;99499.53;4960782;28;20058;-58
2021/11/26 01:12:29;;;;;;;85.57;41.85;;;;;;;9.59;91.79;99498.41;4958947;28;20054;-57
2021/11/26 01:15:20;;;;;;;102.32;51.75;;;;;;;9.59;91.92;99491.06;4962015;28;20047;-59
2021/11/26 01:18:06;;;;;;;98.65;48.88;;;;;;;9.59;92.17;99490.25;4960188;28;20054;-59
2021/11/26 01:20:51;;;;;;;103.38;50.85;;;;;;;9.65;92.55;99486.97;4957592;28;20050;-58
2021/11/26 01:23:37;;;;;;;89.22;48.33;;;;;;;9.64;92.49;99479.19;4963121;28;20047;-59
2021/11/26 01:26:21;;;;;;;95.70;51.55;;;;;;;9.64;92.41;99479.97;4959872;28;20046;-58
2021/11/26 01:29:06;;;;;;;59.65;34.42;;;;;;;9.63;92.48;99472.97;4939264;29;20043;-59
2021/11/26 01:31:51;;;;;;;73.75;37.67;;;;;;;9.56;91.77;99471.91;4959596;28;20050;-58
2021/11/26 01:34:36;;;;;;;64.60;35.25;;;;;;;9.60;92.06;99462.75;4956730;29;20070;-59
2021/11/26 01:37:21;;;;;;;85.80;44.67;;;;;;;9.65;92.41;99459.06;4958262;28;20046;-58
2021/11/26 01:40:07;;;;;;;90.82;46.40;;;;;;;9.66;92.42;99460.63;4956029;28;20046;-60
2021/11/26 01:42:55;;;;;;;124.72;62.25;;;;;;;9.68;92.30;99448.31;4959481;28;20042;-60
2021/11/26 01:45:50;;;;;;;136.30;67.88;;;;;;;9.70;92.41;99439.81;4957726;28;20035;-58
2021/11/26 01:48:40;;;;;;;100.50;52.50;;;;;;;9.69;92.42;99440.94;4961595;28;20058;-58
2021/11/26 01:51:25;;;;;;;129.48;64.78;;;;;;;9.67;92.52;99437.78;4959414;28;20531;-58
2021/11/26 01:54:10;;;;;;;80.03;38.58;;;;;;;9.67;92.36;99429.63;4957785;28;20042;-58
2021/11/26 01:56:55;;;;;;;;;;;;;;;9.71;92.43;99425.09;4959226;28;20058;-58
2021/11/26 01:59:40;;;;;;;136.45;67.80;;;;;;;9.68;92.55;99421.16;4959521;28;19914;-58
2021/11/26 02:02:25;;;;;;;;;;;;;;;9.71;92.40;99416.97;4958052;28;20050;-57
2021/11/26 02:05:09;;;;;;;136.60;70.75;;;;;;;9.70;92.62;99409.97;4955864;28;20292;-58
2021/11/26 02:07:54;;;;;;;97.30;54.90;;;;;;;9.68;92.45;99402.16;4955548;28;20046;-57
2021/11/26 02:10:41;;;;;;;115.90;59.38;;;;;;;9.71;92.70;99404.19;4957776;28;20417;-58
2021/11/26 02:13:26;;;;;;;153.57;75.57;;;;;;;9.70;92.75;99397.16;4956429;28;20043;-58
2021/11/26 02:16:11;;;;;;;113.57;59.83;;;;;;;9.69;92.66;99389.38;4959580;28;20035;-58
2021/11/26 02:18:56;;;;;;;151.60;74.63;;;;;;;9.65;92.34;99389.25;4958355;28;20047;-58
2021/11/26 02:21:42;;;;;;;120.18;67.00;;;;;;;9.67;92.39;99384.28;4946844;29;20046;-58
2021/11/26 02:24:26;;;;;;;155.00;77.57;;;;;;;9.67;92.58;99375.34;4959485;28;20043;-58
2021/11/26 02:27:16;;;;;;;114.75;63.00;;;;;;;9.71;92.60;99365.38;4957528;28;20050;-59
2021/11/26 02:30:05;;;;;;;166.82;83.85;;;;;;;9.70;92.46;99366.53;4954764;28;20438;-59
2021/11/26 02:33:11;;;;;;;134.85;71.82;;;;;;;9.70;92.44;99358.41;4955742;28;20054;-59
2021/11/26 02:35:56;;;;;;;101.25;52.08;;;;;;;9.67;92.32;99361.78;4953780;28;20051;-59
2021/11/26 02:38:40;;;;;;;124.63;62.38;;;;;;;9.66;92.23;99355.56;4960536;28;20489;-59
2021/11/26 02:41:26;;;;;;;162.05;82.45;;;;;;;9.66;92.53;99352.84;4958551;28;20039;-60
2021/11/26 02:44:11;;;;;;;70.93;35.85;;;;;;;9.62;92.31;99351.94;4956974;28;20051;-59
2021/11/26 02:46:56;;;;;;;87.65;48.25;;;;;;;9.55;91.81;99340.88;4957837;28;20058;-60
2021/11/26 02:49:41;;;;;;;77.50;40.13;;;;;;;9.59;91.85;99346.44;4961610;28;20116;-59
2021/11/26 02:52:26;;;;;;;70.63;36.28;;;;;;;9.59;91.81;99330.94;4956988;28;20046;-59
2021/11/26 02:55:16;;;;;;;68.30;34.53;;;;;;;9.59;91.53;99330.16;4960137;28;20046;-59
2021/11/26 02:58:02;;;;;;;83.85;46.85;;;;;;;9.63;91.77;99328.31;4955108;28;20054;-59
2021/11/26 03:00:51;;;;;;;77.28;44.15;;;;;;;9.62;91.90;99321.31;4957021;28;20046;-58
2021/11/26 03:03:36;;;;;;;127.90;68.38;;;;;;;9.58;91.34;99317.69;4935680;29;20055;-58
2021/11/26 03:06:21;;;;;;;134.80;64.60;;;;;;;9.60;91.82;99318.91;4956917;28;20048;-59
2021/11/26 03:09:06;;;;;;;125.93;64.22;;;;;;;9.61;91.65;99309.66;4957174;28;20054;-59
2021/11/26 03:11:50;;;;;;;131.00;66.80;;;;;;;9.64;92.13;99306.28;4955218;28;20054;-60
2021/11/26 03:14:36;;;;;;;;;;;;;;;9.64;91.98;99300.84;4959474;28;20070;-59
2021/11/26 03:17:21;;;;;;;146.48;72.97;;;;;;;9.64;92.53;99300.06;4956348;28;19914;-60
2021/11/26 03:20:06;;;;;;;168.07;83.55;;;;;;;9.63;92.21;99293.03;4960563;28;20405;-59
2021/11/26 03:22:51;;;;;;;175.73;89.82;;;;;;;9.63;92.46;99285.69;4958982;28;20050;-59
2021/11/26 03:25:36;;;;;;;109.50;59.08;;;;;;;9.62;92.02;99269.75;4957170;28;20043;-59
2021/11/26 03:28:21;;;;;;;;;;;;;;;9.61;92.10;99274.38;4955239;28;20042;-59
2021/11/26 03:31:05;;;;;;;134.82;66.30;;;;;;;9.58;92.26;99275.06;4958435;28;19914;-60
2021/11/26 03:33:50;;;;;;;116.32;60.95;;;;;;;9.59;92.38;99267.72;4940902;29;20055;-60
2021/11/26 03:36:36;;;;;;;94.75;46.83;;;;;;;9.48;91.60;99269.34;4955225;28;20494;-60
2021/11/26 03:39:20;;;;;;;95.93;47.03;;;;;;;9.51;91.55;99274.06;4943822;29;20046;-60
2021/11/26 03:42:05;;;;;;;;;;;;;;;9.52;91.42;99265.59;4955062;28;20066;-60
2021/11/26 03:44:50;;;;;;;98.10;48.28;;;;;;;9.51;91.58;99268.63;4955917;28;19922;-60
2021/11/26 03:47:35;;;;;;;153.10;76.95;;;;;;;9.55;91.10;99266.84;4955238;28;20050;-59
2021/11/26 03:50:21;;;;;;;102.63;51.85;;;;;;;9.53;91.25;99263.66;4957250;28;20043;-59
2021/11/26 03:53:05;;;;;;;132.65;62.65;;;;;;;9.50;91.13;99267.84;4954112;29;20043;-60
2021/11/26 03:55:50;;;;;;;131.80;67.78;;;;;;;9.58;91.66;99261.50;4959761;28;20070;-60
2021/11/26 03:58:35;;;;;;;137.68;72.30;;;;;;;9.61;91.93;99257.31;4960141;28;20070;-60
2021/11/26 04:01:20;;;;;;;149.15;73.97;;;;;;;9.59;91.53;99249.53;4960451;28;20035;-60
2021/11/26 04:04:05;;;;;;;125.75;68.82;;;;;;;9.57;91.33;99245.56;4954033;28;20047;-60
2021/11/26 04:06:50;;;;;;;131.05;67.88;;;;;;;9.55;91.04;99235.03;4955139;28;20408;-60
2021/11/26 04:09:35;;;;;;;84.30;43.33;;;;;;;9.59;91.48;99237.88;4956068;28;20416;-60
2021/11/26 04:12:20;;;;;;;182.05;90.65;;;;;;;9.59;91.43;99232.44;4935236;29;20059;-60
2021/11/26 04:15:08;;;;;;;139.77;72.18;;;;;;;9.60;91.38;99232.09;4950253;28;20047;-60
2021/11/26 04:17:55;;;;;;;115.70;61.55;;;;;;;9.55;91.31;99234.28;4954226;28;20409;-60
2021/11/26 04:20:43;;;;;;;95.82;52.92;;;;;;;9.44;90.06;99226.63;4954221;28;20063;-60
2021/11/26 04:23:28;;;;;;;175.23;88.47;;;;;;;9.49;89.96;99227.50;4957443;28;20131;-59
2021/11/26 04:26:13;;;;;;;103.22;52.85;;;;;;;9.49;90.56;99225.59;4955763;29;20042;-60
2021/11/26 04:28:59;;;;;;;106.25;54.60;;;;;;;9.41;89.73;99221.88;4953883;29;20043;-60
2021/11/26 04:31:44;;;;;;;143.00;72.25;;;;;;;9.34;89.88;99213.53;4983950;23;20047;-77
2021/11/26 04:34:29;;;;;;;192.68;94.88;;;;;;;9.48;91.43;99209.66;4969719;28;20058;-78
2021/11/26 04:37:14;;;;;;;146.55;77.75;;;;;;;9.54;92.52;99200.13;4977217;28;20046;-77
2021/11/26 04:39:58;;;;;;;166.88;83.70;;;;;;;9.52;92.57;99195.03;4976153;28;20050;-77
2021/11/26 04:42:44;;;;;;;140.02;72.18;;;;;;;9.56;92.64;99195.91;4955204;29;20042;-77
2021/11/26 04:45:29;;;;;;;165.65;82.88;;;;;;;9.47;92.18;99186.34;4953435;29;20054;-77
2021/11/26 04:48:13;;;;;;;181.98;93.38;;;;;;;9.56;92.39;99184.28;4956610;29;20043;-77
2021/11/26 04:50:57;;;;;;;151.30;74.10;;;;;;;9.58;92.54;99176.59;4955983;29;20039;-75
2021/11/26 04:53:42;;;;;;;199.65;99.82;;;;;;;9.59;92.65;99172.75;4955750;29;20414;-75
2021/11/26 04:56:29;;;;;;;120.78;62.10;;;;;;;9.58;92.36;99171.16;4956773;29;20043;-75
2021/11/26 04:59:13;;;;;;;186.40;96.03;;;;;;;9.60;92.57;99163.47;4955311;28;20063;-76
2021/11/26 05:01:58;;;;;;;155.95;79.00;;;;;;;9.62;92.99;99158.47;4954677;29;20058;-75
2021/11/26 05:04:43;;;;;;;;;;;;;;;9.61;92.51;99160.41;4958010;29;20050;-79
2021/11/26 05:07:28;;;;;;;181.05;85.97;;;;;;;9.54;92.55;99145.84;4955367;29;19922;-78
2021/11/26 05:10:16;;;;;;;134.68;68.28;;;;;;;9.57;92.63;99137.81;4952672;29;20433;-78
2021/11/26 05:13:02;;;;;;;173.80;86.72;;;;;;;9.60;93.23;99141.78;4958179;28;20058;-78
2021/11/26 05:15:47;;;;;;;179.88;94.32;;;;;;;9.58;92.81;99138.59;4957441;29;20044;-79
2021/11/26 05:18:32;;;;;;;;;;;;;;;9.49;92.03;99136.06;4949651;29;20525;-79
2021/11/26 05:21:16;;;;;;;162.20;82.40;;;;;;;9.57;92.48;99131.59;4962697;28;19914;-78
2021/11/26 05:24:01;;;;;;;128.27;66.50;;;;;;;9.55;92.18;99133.88;4958250;28;20054;-77
2021/11/26 05:26:46;;;;;;;123.60;64.85;;;;;;;9.59;92.53;99123.91;4956814;28;20453;-78
2021/11/26 05:29:31;;;;;;;193.13;94.50;;;;;;;9.51;91.81;99117.47;4955811;28;20421;-78
2021/11/26 05:32:16;;;;;;;204.07;103.07;;;;;;;9.56;92.20;99114.50;4970892;28;20042;-76
2021/11/26 05:35:00;;;;;;;228.15;112.95;;;;;;;9.61;92.07;99114.25;4976554;28;20437;-77
2021/11/26 05:37:47;;;;;;;138.77;68.55;;;;;;;9.60;92.12;99111.91;4964995;28;20035;-77
2021/11/26 05:40:32;;;;;;;237.63;115.05;;;;;;;9.63;92.39;99108.50;4978104;28;20433;-77
2021/11/26 05:43:18;;;;;;;159.48;80.72;;;;;;;9.47;91.22;99107.66;4976764;28;20054;-78
2021/11/26 05:46:03;;;;;;;118.80;62.72;;;;;;;9.45;91.45;99100.66;4979237;28;20506;-76
2021/11/26 05:48:47;;;;;;;127.60;66.63;;;;;;;9.48;90.85;99093.78;4974597;28;20035;-77
2021/11/26 05:51:32;;;;;;;;;;;;;;;9.51;91.28;99094.97;4974012;28;20043;-77
2021/11/26 05:54:17;;;;;;;157.55;77.60;;;;;;;9.48;91.20;99084.84;4974110;28;20373;-77
2021/11/26 05:57:03;;;;;;;174.82;83.00;;;;;;;9.50;91.17;99077.16;4975178;28;20062;-77
2021/11/26 05:59:47;;;;;;;240.35;111.18;;;;;;;9.52;90.96;99080.28;4965727;28;20051;-76
2021/11/26 06:02:32;;;;;;;227.10;115.63;;;;;;;9.54;90.69;99078.81;4968983;28;20043;-78
2021/11/26 06:05:17;;;;;;;170.15;86.85;;;;;;;9.51;91.00;99062.41;4960195;28;20039;-78
2021/11/26 06:08:02;;;;;;;68.72;34.38;;;;;;;9.44;90.00;99068.47;4975259;28;20035;-76
2021/11/26 06:10:47;;;;;;;127.35;61.83;;;;;;;9.48;89.85;99063.91;4975408;28;20058;-77
2021/11/26 06:13:31;;;;;;;222.93;108.10;;;;;;;9.49;89.96;99057.38;4979529;28;20441;-76
2021/11/26 06:16:16;;;;;;;211.27;102.78;;;;;;;9.50;90.30;99063.59;4968381;28;20043;-77
2021/11/26 06:19:01;;;;;;;256.42;120.95;;;;;;;9.52;90.68;99064.78;4963845;28;20039;-78
2021/11/26 06:21:46;;;;;;;188.38;95.57;;;;;;;9.43;89.61;99062.25;4970270;28;20449;-77
2021/11/26 06:24:30;;;;;;;192.63;85.55;;;;;;;9.50;90.23;99063.59;4975434;28;20528;-76
2021/11/26 06:27:15;;;;;;;90.68;45.20;;;;;;;9.31;89.52;99064.22;4973912;28;20046;-78
2021/11/26 06:30:00;;;;;;;68.65;35.20;;;;;;;9.36;88.61;99062.06;4969817;28;20054;-77
2021/11/26 06:32:46;;;;;;;144.80;68.32;;;;;;;9.36;88.72;99059.34;4971497;28;20054;-77
2021/11/26 06:35:31;;;;;;;214.55;98.80;;;;;;;9.40;89.07;99057.50;4969911;28;20034;-77
2021/11/26 06:38:16;;;;;;;165.43;78.70;;;;;;;9.42;89.30;99057.97;4977249;28;20047;-77
2021/11/26 06:41:01;;;;;;;155.40;76.90;;;;;;;9.45;89.62;99056.47;4976845;28;20042;-78
2021/11/26 06:43:45;;;;;;;158.70;81.20;;;;;;;9.43;89.43;99053.31;4975215;28;20058;-77
2021/11/26 06:46:30;;;;;;;102.25;50.75;;;;;;;9.43;89.19;99056.03;4978901;28;20050;-77
2021/11/26 06:49:14;;;;;;;99.35;48.60;;;;;;;9.42;89.40;99057.16;4977828;28;20490;-77
2021/11/26 06:51:59;;;;;;;205.95;91.28;;;;;;;9.47;89.97;99058.84;4975699;28;20053;-76
2021/11/26 06:54:44;;;;;;;217.57;103.77;;;;;;;9.49;90.19;99051.16;4979726;28;20057;-78
2021/11/26 06:57:28;;;;;;;153.80;76.95;;;;;;;9.52;90.94;99053.16;4977955;28;20270;-76
2021/11/26 07:00:16;;;;;;;147.52;72.57;;;;;;;9.52;90.99;99043.09;4975804;28;20046;-75
2021/11/26 07:03:00;;;;;;;230.55;104.82;;;;;;;9.52;91.79;99032.25;4973993;28;20051;-78
2021/11/26 07:05:45;;;;;;;203.43;95.30;;;;;;;9.49;91.03;99032.16;4966720;28;20505;-76
2021/11/26 07:08:30;;;;;;;168.52;77.82;;;;;;;9.51;91.12;99025.22;4971093;28;20047;-75
2021/11/26 07:11:15;;;;;;;175.50;82.00;;;;;;;9.53;91.55;99025.69;4967549;28;20045;-77
2021/11/26 07:14:00;;;;;;;173.15;78.10;;;;;;;9.49;91.69;99011.25;4968850;28;20057;-77
2021/11/26 07:16:45;;;;;;;198.05;91.82;;;;;;;9.50;91.69;99006.59;4966988;28;20049;-76
2021/11/26 07:19:30;;;;;;;168.45;79.45;;;;;;;9.56;92.12;99010.63;4966326;28;20049;-76
2021/11/26 07:22:15;;;;;;;153.68;75.00;;;;;;;9.56;92.01;98999.75;4974545;28;20413;-76
2021/11/26 07:25:00;;;;;;;208.98;101.05;;;;;;;9.57;92.26;98996.69;4968784;28;20051;-77
2021/11/26 07:27:45;;;;;;;231.23;105.78;;;;;;;9.58;92.44;98992.06;4965418;28;20051;-76
2021/11/26 07:30:31;;;;;;;163.80;81.20;;;;;;;9.60;92.50;98989.81;4975801;28;20042;-75
2021/11/26 07:33:15;;;;;;;214.35;106.35;;;;;;;9.59;92.53;98989.00;4964590;28;20039;-76
2021/11/26 07:36:00;;;;;;;135.77;63.40;;;;;;;9.57;92.47;98994.00;4963527;28;20047;-76
2021/11/26 07:38:45;;;;;;;162.43;77.43;;;;;;;9.56;92.84;98984.25;4974685;28;20513;-76
2021/11/26 07:41:31;;;;;;;224.70;99.65;;;;;;;9.57;92.61;98987.78;4958935;28;20058;-77
2021/11/26 07:44:15;;;;;;;;;;;;;;;9.60;92.91;98989.81;4971552;28;20449;-78
2021/11/26 07:47:00;;;;;;;91.97;43.42;;;;;;;9.51;92.00;98981.81;4969758;28;19922;-75
2021/11/26 07:49:46;;;;;;;;;;;;;;;9.52;91.41;98988.03;4968200;28;20050;-78
2021/11/26 07:52:32;;;;;;;95.75;45.63;;;;;;;9.43;90.44;98986.28;4973483;28;19914;-78
2021/11/26 07:55:16;;;;;;;139.77;59.53;;;;;;;9.45;90.58;98973.16;4977948;28;20058;-78
2021/11/26 07:58:01;;;;;;;102.10;46.63;;;;;;;9.48;90.96;98970.88;4970881;28;20043;-78
2021/11/26 08:00:46;;;;;;;78.38;36.35;;;;;;;9.47;90.99;98970.09;4970139;28;20046;-76
2021/11/26 08:03:31;;;;;;;109.97;49.78;;;;;;;9.40;89.59;98969.91;4972958;28;20054;-78
2021/11/26 08:06:16;;;;;;;162.85;75.72;;;;;;;9.42;90.35;98963.00;4973229;28;20434;-76
2021/11/26 08:09:01;;;;;;;;;;;;;;;9.40;90.25;98959.84;4966969;28;20042;-77
2021/11/26 08:11:46;;;;;;;124.38;54.75;;;;;;;9.38;90.12;98950.50;4967073;28;19918;-76
2021/11/26 08:14:31;;;;;;;89.05;41.95;;;;;;;9.32;88.99;98955.41;4956983;28;20422;-77
2021/11/26 08:17:16;;;;;;;88.60;38.50;;;;;;;9.24;88.69;98948.22;4959259;28;20049;-75
2021/11/26 08:20:03;;;;;;;101.47;42.42;;;;;;;9.22;88.52;98953.22;4960338;28;20054;-75
2021/11/26 08:22:48;;;;;;;152.32;66.47;;;;;;;9.20;89.07;98955.47;4972704;28;20039;-75
2021/11/26 08:25:34;;;;;;;129.05;58.55;;;;;;;9.19;89.22;98945.00;4974557;28;20501;-75
2021/11/26 08:28:19;;;;;;;143.35;63.85;;;;;;;9.24;89.47;98944.72;4966231;28;20048;-75
2021/11/26 08:31:03;;;;;;;130.13;53.80;;;;;;;9.28;90.17;98930.13;4974972;28;20514;-74
2021/11/26 08:33:49;;;;;;;97.53;44.10;;;;;;;9.26;89.53;98931.59;4947064;28;20050;-77
2021/11/26 08:36:34;;;;;;;130.90;51.58;;;;;;;9.15;87.08;98920.47;4948016;29;20054;-77
2021/11/26 08:39:19;;;;;;;79.85;33.22;;;;;;;8.84;84.83;98915.81;4953636;28;20047;-77
2021/11/26 08:42:04;;;;;;;57.38;23.58;;;;;;;8.62;85.67;98923.72;4954762;29;20054;-77
2021/11/26 08:44:49;;;;;;;52.65;22.75;;;;;;;8.59;85.35;98919.78;4953386;28;20057;-76
2021/11/26 08:47:35;;;;;;;46.40;21.67;;;;;;;8.85;84.67;98925.50;4948981;29;20050;-77
2021/11/26 08:50:21;;;;;;;63.58;27.83;;;;;;;8.89;84.08;98923.69;4955335;29;20398;-76
2021/11/26 08:53:08;;;;;;;65.93;29.25;;;;;;;9.02;84.81;98919.00;4957188;28;20050;-76
2021/11/26 08:55:54;;;;;;;63.90;27.02;;;;;;;9.00;83.56;98918.53;4961429;28;20058;-77
2021/11/26 08:58:40;;;;;;;81.03;28.98;;;;;;;9.06;84.49;98911.72;4959781;28;20050;-76
2021/11/26 09:01:25;;;;;;;77.72;32.67;;;;;;;9.58;83.06;98925.03;4957603;28;20054;-77
2021/11/26 09:04:11;;;;;;;75.20;31.20;;;;;;;10.14;82.08;98917.34;4961834;28;20054;-76
2021/11/26 09:06:56;;;;;;;73.25;30.33;;;;;;;10.16;79.65;98920.50;4957017;28;20047;-75
2021/11/26 09:09:42;;;;;;;67.40;27.58;;;;;;;10.51;78.70;98922.41;4970166;28;20050;-78
2021/11/26 09:12:29;;;;;;;57.97;26.02;;;;;;;10.61;76.94;98930.78;4953945;28;20039;-76
2021/11/26 09:15:14;;;;;;;64.05;26.73;;;;;;;10.63;76.79;98920.31;4966388;28;20047;-76
2021/11/26 09:17:59;;;;;;;53.72;23.25;;;;;;;10.67;76.30;98929.31;4980757;28;20043;-75
2021/11/26 09:20:45;;;;;;;;;;;;;;;10.75;76.29;98930.25;4980103;28;20043;-77
2021/11/26 09:23:29;;;;;;;53.17;21.42;;;;;;;10.75;77.65;98927.53;4978517;28;19914;-74
2021/11/26 09:26:14;;;;;;;55.85;22.05;;;;;;;10.93;77.09;98930.56;4982100;28;20409;-75
2021/11/26 09:28:59;;;;;;;;;;;;;;;11.01;77.45;98916.75;4980687;28;20049;-77
2021/11/26 09:31:44;;;;;;;79.03;33.90;;;;;;;11.07;76.34;98909.84;4978131;28;19914;-75
2021/11/26 09:34:29;;;;;;;78.72;29.70;;;;;;;11.16;77.67;98904.19;4976074;28;20046;-75
2021/11/26 09:37:13;;;;;;;82.25;29.60;;;;;;;10.93;77.25;98896.00;4979519;28;20047;-76
2021/11/26 09:39:59;;;;;;;60.90;25.20;;;;;;;10.78;76.78;98896.88;4977779;28;20050;-75
2021/11/26 09:42:43;;;;;;;39.58;18.35;;;;;;;10.74;76.55;98904.19;4976292;28;20536;-76
2021/11/26 09:45:31;;;;;;;;;;;;;;;10.76;77.60;98901.91;4979965;28;20050;-77
2021/11/26 09:48:16;;;;;;;75.80;29.05;;;;;;;10.79;77.48;98889.53;4978284;28;19914;-76
2021/11/26 09:51:03;;;;;;;51.50;23.15;;;;;;;10.92;77.84;98888.97;4977729;28;20038;-76
2021/11/26 09:53:48;;;;;;;83.97;33.80;;;;;;;11.05;76.60;98887.66;4980704;28;20038;-77
2021/11/26 09:56:34;;;;;;;66.90;25.63;;;;;;;10.92;77.20;98890.94;4977978;28;20046;-78
2021/11/26 09:59:19;;;;;;;65.80;27.77;;;;;;;10.73;76.47;98878.16;4976318;28;20042;-76
2021/11/26 10:02:12;;;;;;;;;;;;;;;9.91;77.82;98875.72;4970258;28;20548;-79
2021/11/26 10:05:03;;;;;;;47.65;21.98;;;;;;;9.92;78.78;98874.59;4953412;28;20405;-78
2021/11/26 10:07:51;;;;;;;46.28;21.58;;;;;;;9.73;79.03;98869.94;4942924;29;20272;-76
2021/11/26 10:10:39;;;;;;;49.33;22.20;;;;;;;9.45;79.48;98869.28;4959505;28;20301;-77
2021/11/26 10:13:24;;;;;;;44.00;21.23;;;;;;;9.62;79.18;98873.53;4957202;28;20120;-77
2021/11/26 10:16:10;;;;;;;32.38;18.13;;;;;;;9.65;79.09;98862.75;4952873;28;20119;-77
2021/11/26 10:18:55;;;;;;;45.53;21.30;;;;;;;9.64;78.74;98863.13;4958867;28;20565;-77
2021/11/26 10:21:40;;;;;;;45.95;20.48;;;;;;;9.60;78.72;98864.97;4954633;28;20054;-76
2021/11/26 10:24:26;;;;;;;49.28;22.42;;;;;;;9.80;78.03;98847.59;4954530;28;20054;-77
2021/11/26 10:27:10;;;;;;;51.13;22.63;;;;;;;10.34;77.08;98854.91;4958436;28;20529;-76
2021/11/26 10:29:55;;;;;;;39.60;19.08;;;;;;;10.99;74.06;98845.59;4956787;28;20047;-77
2021/11/26 10:32:40;;;;;;;32.42;15.73;;;;;;;11.41;72.78;98840.06;4953992;29;20039;-76
2021/11/26 10:35:26;;;;;;;44.10;19.27;;;;;;;11.29;72.82;98825.84;4958629;28;20066;-76
2021/11/26 10:38:13;;;;;;;41.22;19.67;;;;;;;11.35;72.86;98821.69;4957701;28;20043;-77
2021/11/26 10:41:07;;;;;;;42.67;20.35;;;;;;;11.22;72.36;98821.13;4955360;28;20051;-77
2021/11/26 10:44:12;;;;;;;44.42;21.90;;;;;;;11.51;72.33;98814.13;4946653;28;20043;-76
2021/11/26 10:47:12;;;;;;;45.92;21.13;;;;;;;10.70;74.26;98802.78;4943946;28;20047;-77
2021/11/26 10:59:11;;;;;;;30.25;15.43;;;;;;;10.82;73.59;98788.97;4950633;29;20035;-59
2021/11/26 11:01:57;;;;;;;38.13;15.40;;;;;;;10.81;73.97;98789.38;4958866;28;20050;-59
2021/11/26 11:04:48;;;;;;;50.83;23.45;;;;;;;10.66;74.49;98782.91;4942258;28;20050;-59
2021/11/26 11:07:44;;;;;;;51.20;23.17;;;;;;;10.55;75.25;98776.50;4960734;28;20049;-58
2021/11/26 11:10:31;;;;;;;54.92;24.60;;;;;;;10.52;75.51;98779.94;4964365;28;20050;-59
2021/11/26 11:13:26;;;;;;;53.33;23.63;;;;;;;10.55;75.82;98765.63;4951744;28;20055;-59
2021/11/26 11:16:12;;;;;;;52.58;24.23;;;;;;;10.55;75.87;98765.63;4962589;28;20049;-59
2021/11/26 11:18:57;;;;;;;44.63;21.98;;;;;;;10.35;75.70;98759.47;4954552;28;20047;-59
2021/11/26 11:21:45;;;;;;;38.97;17.30;;;;;;;10.29;75.49;98753.53;4953398;28;20043;-59
2021/11/26 11:24:30;;;;;;;45.35;23.00;;;;;;;10.39;75.94;98748.66;4965532;28;20039;-59
2021/11/26 11:27:15;;;;;;;32.53;17.10;;;;;;;10.15;75.65;98744.31;4971233;28;20282;-59
2021/11/26 11:30:03;;;;;;;29.77;15.80;;;;;;;10.08;75.70;98742.25;4971883;28;20049;-59
2021/11/26 11:32:48;;;;;;;46.80;22.58;;;;;;;10.31;75.73;98742.28;4963062;28;20043;-59
2021/11/26 11:35:37;;;;;;;32.42;15.50;;;;;;;10.26;75.62;98729.81;4962227;28;20441;-59
2021/11/26 11:38:22;;;;;;;42.15;20.92;;;;;;;10.06;75.98;98724.72;4966558;28;20062;-59
2021/11/26 11:41:08;;;;;;;41.67;18.00;;;;;;;10.47;75.63;98723.94;4961370;28;20043;-60
2021/11/26 11:43:53;;;;;;;43.05;20.45;;;;;;;10.48;74.93;98724.72;4968324;28;20051;-59
2021/11/26 11:46:38;;;;;;;35.45;16.40;;;;;;;10.49;74.43;98721.66;4967494;28;20050;-59
2021/11/26 11:49:31;;;;;;;31.08;16.27;;;;;;;10.44;74.61;98726.63;4961558;28;20050;-59
2021/11/26 11:52:16;;;;;;;43.72;21.58;;;;;;;10.12;75.37;98721.38;4965655;28;20050;-59
2021/11/26 11:55:00;;;;;;;32.70;16.73;;;;;;;10.02;76.21;98719.25;4969945;28;20042;-59
2021/11/26 11:57:46;;;;;;;36.90;18.13;;;;;;;10.00;76.43;98716.13;4961074;28;20054;-59
2021/11/26 12:00:36;;;;;;;46.28;22.33;;;;;;;10.36;75.46;98711.34;4957303;28;20039;-59
2021/11/26 12:03:28;;;;;;;47.42;23.08;;;;;;;10.43;75.47;98701.38;4957342;28;20515;-59
2021/11/26 12:06:13;;;;;;;48.50;23.00;;;;;;;10.17;75.39;98688.50;4968805;28;20404;-59
2021/11/26 12:08:58;;;;;;;47.35;22.30;;;;;;;10.12;75.82;98690.72;4964877;28;20035;-59
2021/11/26 12:11:44;;;;;;;53.20;25.80;;;;;;;10.46;74.69;98689.78;4970109;28;20135;-59
2021/11/26 12:14:29;;;;;;;48.13;25.05;;;;;;;10.34;74.59;98681.03;4964195;28;20492;-59
2021/11/26 12:17:24;;;;;;;;;;;;;;;10.22;75.30;98671.91;4962977;28;20055;-59
2021/11/26 12:20:17;;;;;;;48.40;22.00;;;;;;;10.23;74.79;98670.00;4942363;28;19914;-59
2021/11/26 12:23:18;;;;;;;52.72;23.48;;;;;;;10.28;74.86;98669.69;4964230;28;20051;-59
2021/11/26 12:28:57;;;;;;;44.95;22.63;;;;;;;10.32;75.47;98661.59;4965610;28;20062;-59
2021/11/26 12:31:42;;;;;;;46.70;23.42;;;;;;;10.46;74.85;98661.84;4962818;28;20039;-59
2021/11/26 12:34:43;;;;;;;48.03;23.52;;;;;;;10.45;74.52;98662.97;4973478;28;20050;-59
2021/11/26 12:37:31;;;;;;;50.38;22.55;;;;;;;10.40;75.30;98658.63;4975592;28;20049;-59
2021/11/26 12:40:16;;;;;;;50.03;24.25;;;;;;;10.55;74.51;98648.78;4967951;28;20038;-59
2021/11/26 12:43:03;;;;;;;32.45;17.08;;;;;;;10.57;74.37;98652.69;4976712;28;20512;-59
2021/11/26 12:45:48;;;;;;;43.00;22.60;;;;;;;10.68;74.11;98648.19;4975133;28;20050;-59
2021/11/26 12:48:35;;;;;;;41.03;16.63;;;;;;;10.99;72.84;98652.50;4969299;28;20046;-59
2021/11/26 12:51:20;;;;;;;50.30;22.13;;;;;;;10.84;73.34;98634.44;4965803;28;20400;-59
2021/11/26 12:54:06;;;;;;;47.65;22.65;;;;;;;10.85;74.51;98630.56;4951515;28;20068;-59
2021/11/26 12:56:53;;;;;;;48.53;22.98;;;;;;;10.85;74.60;98633.28;4971616;28;20419;-59
2021/11/26 12:59:38;;;;;;;44.63;22.00;;;;;;;11.04;72.72;98632.38;4960061;28;20054;-59
2021/11/26 13:02:34;;;;;;;29.85;16.38;;;;;;;11.42;71.86;98634.81;4964205;28;20420;-59